Henrik Krøyer Holme

KL  EN  DA
ASIAQ
Weather Now GREENLAND SURVEY
Updated [WGT/WGST] Temperature [°C] Wind [m/s] Air pressure [hPa] Relative humidity [%] Precipitation [mm]
Present Wind chill Speed Max
02.05 19:00-10,1-24,826,0 ⇓33,0100777n/a
02.05 18:00-9,9-24,626,0 ⇓32,0100680n/a
02.05 17:00-9,8-24,124,0 ⇓32,0100776n/a
02.05 16:00-9,9-23,822,0 ⇓28,0100773n/a
02.05 15:00-9,7-23,924,0 ⇓31,0100773n/a
02.05 14:00-9,6-23,824,0 ⇓30,0100771n/a
02.05 13:00-9,8-23,421,0 ⇓28,0100773n/a
02.05 12:00-9,8-24,426,0 ⇓31,0100671n/a
02.05 11:00-10,1-25,228,0 ⇓36,0100572n/a
02.05 10:00-10,3-25,126,0 ⇓32,0100477n/a
02.05 09:00-10,2-25,729,0 ⇓37,0100476n/a
02.05 08:00-10,3-24,925,0 ⇓32,0100576n/a
02.05 07:00-9,7-23,723,0 ⇓28,0100571n/a
02.05 06:00-9,7-24,326,0 ⇓33,0100471n/a
02.05 05:00-10,0-25,027,0 ⇓34,0100371n/a
02.05 04:00-10,2-25,026,0 ⇓32,0100373n/a
02.05 03:00-10,4-25,125,0 ⇓30,0100272n/a
02.05 02:00-10,9-26,629,0 ⇓32,0100374n/a
02.05 01:00-11,0-26,326,0 ⇓33,0100277n/a
02.05 00:00-10,5-25,225,0 ⇓31,0100370n/a
01.05 23:00-11,2-26,426,0 ⇓30,0100270n/a
01.05 22:00-11,5-25,821,0 ⇓28,0100482n/a
01.05 21:00-11,5-25,821,0 ⇓27,0100480n/a
01.05 20:00-10,9-24,820,0 ⇓25,0100376n/a
01.05 19:00-10,9-24,921,0 ⇓27,0100375n/a
Position: (80.649444,-13.711944)

[Back]